Time;durP1;ratioP1;P1;durP2;ratioP2;P2;SDS_P1;SDS_P2;PMS_P1;PMS_P2;Temp;Humidity;BMP_temperature;BMP_pressure;BME280_temperature;BME280_humidity;BME280_pressure;Samples;Min_cycle;Max_cycle;Signal;HPM_P1;HPM_P2
2024/01/14 00:00:37;;;;;;;45.13;21.13;;;;;;;;;;5024826;28;20189;-75
2024/01/14 00:03:04;;;;;;;35.50;20.90;;;;;;;;;;5036693;28;20193;-75
2024/01/14 00:05:29;;;;;;;38.13;19.30;;;;;;;;;;5048501;28;20560;-76
2024/01/14 00:07:56;;;;;;;41.67;21.13;;;;;;;;;;5050370;28;20182;-75
2024/01/14 00:10:22;;;;;;;37.03;20.53;;;;;;;;;;5044981;28;20212;-75
2024/01/14 00:12:48;;;;;;;38.57;19.90;;;;;;;;;;5044018;28;20683;-75
2024/01/14 00:15:14;;;;;;;40.63;20.37;;;;;;;;;;5044954;28;20248;-75
2024/01/14 00:17:41;;;;;;;39.83;20.13;;;;;;;;;;5038302;28;20673;-75
2024/01/14 00:20:08;;;;;;;39.33;20.10;;;;;;;;;;5031178;28;20663;-75
2024/01/14 00:22:33;;;;;;;41.43;19.93;;;;;;;;;;5047812;28;20177;-75
2024/01/14 00:24:59;;;;;;;38.67;19.20;;;;;;;;;;5034414;28;20197;-75
2024/01/14 00:27:24;;;;;;;38.53;20.17;;;;;;;;;;5037038;28;20175;-75
2024/01/14 00:29:50;;;;;;;36.43;20.13;;;;;;;;;;5035292;28;20482;-75
2024/01/14 00:32:15;;;;;;;37.30;18.57;;;;;;;;;;5039101;28;20271;-75
2024/01/14 00:34:41;;;;;;;31.60;17.60;;;;;;;;;;5045049;28;20189;-75
2024/01/14 00:37:06;;;;;;;34.23;18.00;;;;;;;;;;5050938;28;20208;-75
2024/01/14 00:39:36;;;;;;;36.23;16.97;;;;;;;;;;5036293;28;20186;-75
2024/01/14 00:42:02;;;;;;;37.47;17.27;;;;;;;;;;5038253;28;20198;-75
2024/01/14 00:44:27;;;;;;;36.70;17.53;;;;;;;;;;5042552;28;20182;-75
2024/01/14 00:46:53;;;;;;;32.77;15.77;;;;;;;;;;5046584;28;20217;-75
2024/01/14 00:49:18;;;;;;;34.30;16.27;;;;;;;;;;5050244;28;20277;-75
2024/01/14 00:51:43;;;;;;;32.87;16.53;;;;;;;;;;5045731;28;20197;-75
2024/01/14 00:54:09;;;;;;;31.13;17.00;;;;;;;;;;5037469;28;20194;-75
2024/01/14 00:56:34;;;;;;;34.23;16.90;;;;;;;;;;5035968;28;20218;-75
2024/01/14 00:59:00;;;;;;;30.27;15.63;;;;;;;;;;5040611;28;20606;-75
2024/01/14 01:01:25;;;;;;;29.37;15.10;;;;;;;;;;5048415;28;20284;-75
2024/01/14 01:03:50;;;;;;;33.63;16.37;;;;;;;;;;5029488;28;20598;-75
2024/01/14 01:06:16;;;;;;;36.63;17.77;;;;;;;;;;5036763;28;20579;-75
2024/01/14 01:08:41;;;;;;;37.70;17.93;;;;;;;;;;5041279;28;20233;-75
2024/01/14 01:11:07;;;;;;;38.10;18.60;;;;;;;;;;5035004;28;20194;-75
2024/01/14 01:13:32;;;;;;;37.93;17.97;;;;;;;;;;5019250;28;20186;-75
2024/01/14 01:15:57;;;;;;;38.03;17.83;;;;;;;;;;5043362;28;20217;-75
2024/01/14 01:18:23;;;;;;;38.73;18.13;;;;;;;;;;5049081;28;20672;-76
2024/01/14 01:20:51;;;;;;;35.73;17.30;;;;;;;;;;5049316;28;20262;-75
2024/01/14 01:23:16;;;;;;;37.20;18.17;;;;;;;;;;5024607;28;20197;-75
2024/01/14 01:25:42;;;;;;;36.47;17.53;;;;;;;;;;5047349;28;20205;-75
2024/01/14 01:28:09;;;;;;;34.60;17.57;;;;;;;;;;5014304;28;20560;-75
2024/01/14 01:30:35;;;;;;;39.43;18.07;;;;;;;;;;5040139;28;20193;-75
2024/01/14 01:33:00;;;;;;;34.47;18.77;;;;;;;;;;5037126;28;20966;-75
2024/01/14 01:35:25;;;;;;;37.07;17.60;;;;;;;;;;5036709;28;20186;-75
2024/01/14 01:37:51;;;;;;;37.80;17.23;;;;;;;;;;5034221;28;20216;-75
2024/01/14 01:40:17;;;;;;;33.57;17.17;;;;;;;;;;5038649;28;20211;-75
2024/01/14 01:42:42;;;;;;;32.80;17.40;;;;;;;;;;5015331;28;20200;-75
2024/01/14 01:45:09;;;;;;;34.70;17.13;;;;;;;;;;5036263;28;20204;-75
2024/01/14 01:47:35;;;;;;;35.23;17.73;;;;;;;;;;5044416;28;20188;-75
2024/01/14 01:50:01;;;;;;;34.33;16.67;;;;;;;;;;5044485;28;20198;-75
2024/01/14 01:52:26;;;;;;;30.93;15.43;;;;;;;;;;5040884;28;20190;-75
2024/01/14 01:54:54;;;;;;;32.67;14.90;;;;;;;;;;5047248;28;20236;-75
2024/01/14 01:57:21;;;;;;;28.27;14.47;;;;;;;;;;5042688;28;20217;-75
2024/01/14 01:59:47;;;;;;;30.93;14.10;;;;;;;;;;5027399;28;20600;-75
2024/01/14 02:02:13;;;;;;;30.87;13.70;;;;;;;;;;5039016;28;20255;-74
2024/01/14 02:04:38;;;;;;;29.17;13.43;;;;;;;;;;5037064;28;20190;-75
2024/01/14 02:07:05;;;;;;;30.07;14.07;;;;;;;;;;5041464;28;20196;-75
2024/01/14 02:09:32;;;;;;;26.03;12.67;;;;;;;;;;5049044;28;20600;-75
2024/01/14 02:11:58;;;;;;;28.23;13.83;;;;;;;;;;5047979;28;20202;-75
2024/01/14 02:14:24;;;;;;;27.97;13.87;;;;;;;;;;5035631;28;20240;-75
2024/01/14 02:16:49;;;;;;;26.73;13.87;;;;;;;;;;5037738;28;20217;-75
2024/01/14 02:19:15;;;;;;;28.40;14.40;;;;;;;;;;5047212;28;20684;-75
2024/01/14 02:21:44;;;;;;;34.87;14.63;;;;;;;;;;5030152;28;20201;-76
2024/01/14 02:24:28;;;;;;;30.27;14.27;;;;;;;;;;5029805;28;20288;-76
2024/01/14 02:26:53;;;;;;;30.13;13.53;;;;;;;;;;5016374;28;20190;-75
2024/01/14 02:29:20;;;;;;;29.33;13.73;;;;;;;;;;5045498;28;20196;-75
2024/01/14 02:31:45;;;;;;;30.93;13.10;;;;;;;;;;5036673;28;20620;-75
2024/01/14 02:34:12;;;;;;;31.30;13.07;;;;;;;;;;5045742;28;20196;-75
2024/01/14 02:36:37;;;;;;;26.20;12.57;;;;;;;;;;5033286;28;20577;-75
2024/01/14 02:39:04;;;;;;;27.80;13.10;;;;;;;;;;5036421;28;21346;-75
2024/01/14 02:41:30;;;;;;;28.20;11.47;;;;;;;;;;5040993;28;20182;-75
2024/01/14 02:43:55;;;;;;;23.67;11.70;;;;;;;;;;5030792;28;20534;-75
2024/01/14 02:46:21;;;;;;;27.23;11.40;;;;;;;;;;5035030;28;20625;-75
2024/01/14 02:48:46;;;;;;;25.17;11.50;;;;;;;;;;5037927;28;20198;-75
2024/01/14 02:51:12;;;;;;;29.13;11.30;;;;;;;;;;5035718;28;20196;-75
2024/01/14 02:53:37;;;;;;;26.57;11.40;;;;;;;;;;5042562;28;20193;-75
2024/01/14 02:56:04;;;;;;;22.40;10.07;;;;;;;;;;5038743;28;20197;-75
2024/01/14 02:58:29;;;;;;;26.83;10.83;;;;;;;;;;5043157;28;20225;-75
2024/01/14 03:00:55;;;;;;;24.43;10.47;;;;;;;;;;5039562;28;20270;-75
2024/01/14 03:03:21;;;;;;;27.77;11.10;;;;;;;;;;5031957;28;20253;-75
2024/01/14 03:05:47;;;;;;;18.23;8.73;;;;;;;;;;5025252;28;20213;-75
2024/01/14 03:08:13;;;;;;;29.07;8.80;;;;;;;;;;5041827;28;20193;-75
2024/01/14 03:10:38;;;;;;;23.13;7.83;;;;;;;;;;5029551;28;20182;-75
2024/01/14 03:13:04;;;;;;;18.73;7.17;;;;;;;;;;5021521;28;20202;-75
2024/01/14 03:15:30;;;;;;;23.33;7.37;;;;;;;;;;5032280;28;20230;-75
2024/01/14 03:17:55;;;;;;;19.17;7.10;;;;;;;;;;5041551;28;20214;-75
2024/01/14 03:20:22;;;;;;;18.60;6.13;;;;;;;;;;5035557;28;20554;-75
2024/01/14 03:22:48;;;;;;;17.50;5.90;;;;;;;;;;5037597;28;20202;-75
2024/01/14 03:25:13;;;;;;;16.37;5.63;;;;;;;;;;5038343;28;20193;-75
2024/01/14 03:27:39;;;;;;;12.90;5.37;;;;;;;;;;5048070;28;20178;-75
2024/01/14 03:30:05;;;;;;;19.00;6.63;;;;;;;;;;5033194;28;20189;-75
2024/01/14 03:32:30;;;;;;;17.80;5.13;;;;;;;;;;5046989;28;20194;-75
2024/01/14 03:34:56;;;;;;;15.30;4.93;;;;;;;;;;5038652;28;20195;-75
2024/01/14 03:37:21;;;;;;;13.73;4.73;;;;;;;;;;5037377;28;20706;-75
2024/01/14 03:39:49;;;;;;;13.37;4.97;;;;;;;;;;5028704;28;20204;-75
2024/01/14 03:42:15;;;;;;;12.77;5.00;;;;;;;;;;5040719;28;20193;-75
2024/01/14 03:44:41;;;;;;;11.10;4.60;;;;;;;;;;5033050;28;20676;-75
2024/01/14 03:47:07;;;;;;;12.40;4.60;;;;;;;;;;5041057;28;20236;-75
2024/01/14 03:49:33;;;;;;;15.30;6.20;;;;;;;;;;5037886;28;20190;-75
2024/01/14 03:51:58;;;;;;;12.23;5.00;;;;;;;;;;5034128;28;20246;-75
2024/01/14 03:54:23;;;;;;;16.50;4.80;;;;;;;;;;5030526;28;20196;-75
2024/01/14 03:56:49;;;;;;;13.97;5.50;;;;;;;;;;5040226;28;20221;-75
2024/01/14 03:59:14;;;;;;;12.17;5.30;;;;;;;;;;5032051;28;20201;-75
2024/01/14 04:01:40;;;;;;;18.20;5.80;;;;;;;;;;5046123;28;20190;-75
2024/01/14 04:04:06;;;;;;;12.80;5.53;;;;;;;;;;5037285;28;20196;-75
2024/01/14 04:06:31;;;;;;;14.27;5.87;;;;;;;;;;5020206;28;20201;-75
2024/01/14 04:08:57;;;;;;;20.50;6.40;;;;;;;;;;5039576;28;20537;-75
2024/01/14 04:11:22;;;;;;;15.80;6.87;;;;;;;;;;5040627;28;20617;-75
2024/01/14 04:13:48;;;;;;;15.20;6.80;;;;;;;;;;5033318;28;20205;-75
2024/01/14 04:16:14;;;;;;;14.50;7.10;;;;;;;;;;5028940;28;20185;-74
2024/01/14 04:18:39;;;;;;;21.17;8.63;;;;;;;;;;5041445;28;20202;-74
2024/01/14 04:21:05;;;;;;;22.13;8.77;;;;;;;;;;5024253;28;20741;-75
2024/01/14 04:23:30;;;;;;;23.30;9.77;;;;;;;;;;5035648;28;20194;-75
2024/01/14 04:25:56;;;;;;;25.23;9.67;;;;;;;;;;5037749;28;20185;-75
2024/01/14 04:28:21;;;;;;;24.33;10.63;;;;;;;;;;5039256;28;20185;-75
2024/01/14 04:30:47;;;;;;;21.17;11.00;;;;;;;;;;5035466;28;20632;-75
2024/01/14 04:33:12;;;;;;;25.07;11.30;;;;;;;;;;5039688;28;20193;-75
2024/01/14 04:35:38;;;;;;;24.33;11.80;;;;;;;;;;5029037;28;20199;-75
2024/01/14 04:38:03;;;;;;;22.77;11.73;;;;;;;;;;5040494;28;20712;-76
2024/01/14 04:40:29;;;;;;;28.07;12.60;;;;;;;;;;5037088;28;20609;-76
2024/01/14 04:42:54;;;;;;;27.43;13.03;;;;;;;;;;5037285;28;20186;-76
2024/01/14 04:45:19;;;;;;;32.67;13.70;;;;;;;;;;5028091;28;20198;-76
2024/01/14 04:47:45;;;;;;;22.07;12.53;;;;;;;;;;5037671;28;20186;-76
2024/01/14 04:50:10;;;;;;;28.70;12.80;;;;;;;;;;5030871;28;20194;-76
2024/01/14 04:52:36;;;;;;;27.13;12.87;;;;;;;;;;5037521;28;20680;-76
2024/01/14 04:55:01;;;;;;;28.57;11.50;;;;;;;;;;5022411;28;20646;-75
2024/01/14 04:57:26;;;;;;;25.83;8.93;;;;;;;;;;5043862;28;20216;-76
2024/01/14 04:59:52;;;;;;;17.33;8.70;;;;;;;;;;5028833;28;20201;-75
2024/01/14 05:02:17;;;;;;;31.03;10.27;;;;;;;;;;5046903;28;20694;-75
2024/01/14 05:04:43;;;;;;;21.53;11.50;;;;;;;;;;5025047;28;20185;-75
2024/01/14 05:07:08;;;;;;;28.17;12.60;;;;;;;;;;5044657;28;20194;-75
2024/01/14 05:09:34;;;;;;;27.30;11.77;;;;;;;;;;5040863;28;21220;-75
2024/01/14 05:11:59;;;;;;;30.73;13.17;;;;;;;;;;5046747;28;20200;-75
2024/01/14 05:14:24;;;;;;;31.63;13.97;;;;;;;;;;5030674;28;20604;-75
2024/01/14 05:16:50;;;;;;;36.50;15.93;;;;;;;;;;5039831;28;20222;-76
2024/01/14 05:19:16;;;;;;;36.83;16.17;;;;;;;;;;5047763;28;20228;-76
2024/01/14 05:21:42;;;;;;;44.03;16.57;;;;;;;;;;5042764;28;20204;-75
2024/01/14 05:24:07;;;;;;;43.27;19.07;;;;;;;;;;5031712;28;20281;-75
2024/01/14 05:26:32;;;;;;;44.30;19.17;;;;;;;;;;5033641;28;20265;-76
2024/01/14 05:29:01;;;;;;;44.83;19.87;;;;;;;;;;5035735;28;20248;-76
2024/01/14 05:31:28;;;;;;;48.20;20.03;;;;;;;;;;5033142;28;20209;-75
2024/01/14 05:33:54;;;;;;;51.50;20.67;;;;;;;;;;5041751;28;20197;-76
2024/01/14 05:36:19;;;;;;;51.47;21.27;;;;;;;;;;5034971;28;20280;-76
2024/01/14 05:38:45;;;;;;;50.60;21.03;;;;;;;;;;5026926;28;20328;-76
2024/01/14 05:41:13;;;;;;;55.30;21.07;;;;;;;;;;5042069;28;20197;-76
2024/01/14 05:43:39;;;;;;;59.63;21.97;;;;;;;;;;5047969;28;20190;-76
2024/01/14 05:46:04;;;;;;;54.07;21.53;;;;;;;;;;5037977;28;20626;-76
2024/01/14 05:48:29;;;;;;;46.37;20.07;;;;;;;;;;5044387;28;20630;-75
2024/01/14 05:50:55;;;;;;;53.07;20.37;;;;;;;;;;5045639;28;20197;-75
2024/01/14 05:53:20;;;;;;;52.33;20.17;;;;;;;;;;5036949;28;20194;-75
2024/01/14 05:55:46;;;;;;;53.60;20.90;;;;;;;;;;5029061;28;20186;-75
2024/01/14 05:58:11;;;;;;;54.77;20.60;;;;;;;;;;5045886;28;20639;-75
2024/01/14 06:00:36;;;;;;;50.87;19.70;;;;;;;;;;5041711;28;20201;-75
2024/01/14 06:03:02;;;;;;;46.93;20.00;;;;;;;;;;5025215;28;20643;-75
2024/01/14 06:05:28;;;;;;;52.97;20.57;;;;;;;;;;5032578;28;20273;-75
2024/01/14 06:07:53;;;;;;;54.33;20.57;;;;;;;;;;5029587;28;20188;-75
2024/01/14 06:10:18;;;;;;;47.67;21.97;;;;;;;;;;5035547;28;20232;-75
2024/01/14 06:12:44;;;;;;;49.67;20.50;;;;;;;;;;5043470;28;20219;-75
2024/01/14 06:15:09;;;;;;;53.97;22.10;;;;;;;;;;5057722;28;20656;-75
2024/01/14 06:17:35;;;;;;;51.43;21.47;;;;;;;;;;5017104;28;20210;-75
2024/01/14 06:20:00;;;;;;;49.27;20.93;;;;;;;;;;5046117;28;20740;-75
2024/01/14 06:22:26;;;;;;;52.60;20.73;;;;;;;;;;5038644;28;20364;-75
2024/01/14 06:24:51;;;;;;;49.00;19.40;;;;;;;;;;5041303;28;20508;-75
2024/01/14 06:27:17;;;;;;;52.63;21.63;;;;;;;;;;5028333;28;20320;-75
2024/01/14 06:29:42;;;;;;;54.93;21.93;;;;;;;;;;5012910;28;20588;-75
2024/01/14 06:32:08;;;;;;;56.07;22.70;;;;;;;;;;5037994;28;20198;-75
2024/01/14 06:34:33;;;;;;;53.33;22.50;;;;;;;;;;5033045;28;20196;-75
2024/01/14 06:36:58;;;;;;;51.47;22.47;;;;;;;;;;5046749;28;20342;-75
2024/01/14 06:39:24;;;;;;;53.07;23.23;;;;;;;;;;5019390;28;20292;-75
2024/01/14 06:41:51;;;;;;;54.77;22.77;;;;;;;;;;5041475;28;20186;-76
2024/01/14 06:44:16;;;;;;;58.80;25.00;;;;;;;;;;5015092;28;20194;-75
2024/01/14 06:46:43;;;;;;;59.70;24.90;;;;;;;;;;5049367;28;20535;-75
2024/01/14 06:49:08;;;;;;;55.77;24.33;;;;;;;;;;5030718;28;20713;-75
2024/01/14 06:51:40;;;;;;;63.57;26.53;;;;;;;;;;5012330;28;20573;-76
2024/01/14 06:54:06;;;;;;;65.50;26.13;;;;;;;;;;5026440;28;20198;-76
2024/01/14 06:56:32;;;;;;;62.27;26.63;;;;;;;;;;5016402;28;20216;-75
2024/01/14 06:58:58;;;;;;;69.23;27.30;;;;;;;;;;5036199;28;20190;-75
2024/01/14 07:01:23;;;;;;;69.97;28.43;;;;;;;;;;5042904;28;20247;-75
2024/01/14 07:03:49;;;;;;;66.13;26.77;;;;;;;;;;5031743;28;20227;-76
2024/01/14 07:06:14;;;;;;;69.93;29.87;;;;;;;;;;5047699;28;20577;-76
2024/01/14 07:08:40;;;;;;;70.87;29.77;;;;;;;;;;5036214;28;20244;-75
2024/01/14 07:11:05;;;;;;;80.77;30.27;;;;;;;;;;5033348;28;20197;-75
2024/01/14 07:13:31;;;;;;;74.27;28.83;;;;;;;;;;5037524;28;20288;-76
2024/01/14 07:15:56;;;;;;;78.73;29.50;;;;;;;;;;5042737;28;20383;-76
2024/01/14 07:18:22;;;;;;;81.50;29.70;;;;;;;;;;5026762;28;20217;-76
2024/01/14 07:20:48;;;;;;;74.40;29.13;;;;;;;;;;5034768;28;20198;-76
2024/01/14 07:23:14;;;;;;;73.07;30.27;;;;;;;;;;5043060;28;20185;-76
2024/01/14 07:25:39;;;;;;;72.13;29.33;;;;;;;;;;5034079;28;20616;-76
2024/01/14 07:28:05;;;;;;;70.20;30.97;;;;;;;;;;5034016;28;20277;-76
2024/01/14 07:30:31;;;;;;;77.10;31.07;;;;;;;;;;5041561;28;20310;-76
2024/01/14 07:32:56;;;;;;;72.67;29.60;;;;;;;;;;5038686;28;20538;-76
2024/01/14 07:35:21;;;;;;;73.10;30.53;;;;;;;;;;5016883;28;20300;-76
2024/01/14 07:37:47;;;;;;;79.03;32.47;;;;;;;;;;5019708;28;20205;-75
2024/01/14 07:40:12;;;;;;;77.33;31.47;;;;;;;;;;5043701;28;20197;-76
2024/01/14 07:42:38;;;;;;;72.17;30.80;;;;;;;;;;5036132;28;20188;-76
2024/01/14 07:45:04;;;;;;;72.57;31.97;;;;;;;;;;5036278;28;20589;-77
2024/01/14 07:47:29;;;;;;;75.37;31.67;;;;;;;;;;5040720;28;20589;-76
2024/01/14 07:49:55;;;;;;;67.33;29.77;;;;;;;;;;5032926;28;20190;-76
2024/01/14 07:52:20;;;;;;;73.80;31.57;;;;;;;;;;5029058;28;20185;-77
2024/01/14 07:54:45;;;;;;;77.17;31.73;;;;;;;;;;5036727;28;20609;-77
2024/01/14 07:57:11;;;;;;;77.40;31.13;;;;;;;;;;5041739;28;20635;-76
2024/01/14 07:59:36;;;;;;;76.87;31.47;;;;;;;;;;5030230;28;20259;-76
2024/01/14 08:02:02;;;;;;;74.43;31.20;;;;;;;;;;5028923;28;20225;-76
2024/01/14 08:04:27;;;;;;;74.27;30.20;;;;;;;;;;5034555;28;20201;-77
2024/01/14 08:06:53;;;;;;;74.87;30.83;;;;;;;;;;5034053;28;20633;-77
2024/01/14 08:09:20;;;;;;;71.80;31.30;;;;;;;;;;5039659;28;20657;-77
2024/01/14 08:11:45;;;;;;;71.73;31.50;;;;;;;;;;5043294;28;20712;-77
2024/01/14 08:14:11;;;;;;;75.47;31.40;;;;;;;;;;5033938;28;20233;-76
2024/01/14 08:16:36;;;;;;;71.30;30.93;;;;;;;;;;5045708;28;20279;-77
2024/01/14 08:19:02;;;;;;;75.30;29.20;;;;;;;;;;5020464;28;20221;-77
2024/01/14 08:21:27;;;;;;;76.00;30.60;;;;;;;;;;5040795;28;20244;-77
2024/01/14 08:23:53;;;;;;;71.30;30.60;;;;;;;;;;5026000;28;20726;-76
2024/01/14 08:26:18;;;;;;;70.67;31.13;;;;;;;;;;5046087;28;20189;-76
2024/01/14 08:28:44;;;;;;;76.90;30.33;;;;;;;;;;5049243;28;20477;-77
2024/01/14 08:31:10;;;;;;;75.80;31.90;;;;;;;;;;5049336;28;20606;-78
2024/01/14 08:33:37;;;;;;;77.03;31.43;;;;;;;;;;5038488;28;20213;-77
2024/01/14 08:36:02;;;;;;;75.17;31.90;;;;;;;;;;5038401;28;20194;-77
2024/01/14 08:38:28;;;;;;;79.53;32.03;;;;;;;;;;5046697;28;20258;-77
2024/01/14 08:40:53;;;;;;;75.03;30.97;;;;;;;;;;5049844;28;20276;-76
2024/01/14 08:43:19;;;;;;;75.43;30.70;;;;;;;;;;5032628;28;20190;-76
2024/01/14 08:45:44;;;;;;;76.77;30.17;;;;;;;;;;5045343;28;20186;-76
2024/01/14 08:48:13;;;;;;;77.30;32.13;;;;;;;;;;5044312;28;20601;-76
2024/01/14 08:50:38;;;;;;;77.90;31.30;;;;;;;;;;5040501;28;20251;-76
2024/01/14 08:53:04;;;;;;;73.13;30.30;;;;;;;;;;5030167;28;20600;-76
2024/01/14 08:55:30;;;;;;;85.17;31.80;;;;;;;;;;5026792;28;20189;-76
2024/01/14 08:57:55;;;;;;;80.73;32.57;;;;;;;;;;5022108;28;20424;-76
2024/01/14 09:00:21;;;;;;;75.70;30.33;;;;;;;;;;5049041;28;20272;-76
2024/01/14 09:02:47;;;;;;;78.07;30.87;;;;;;;;;;5050708;28;20201;-76
2024/01/14 09:05:12;;;;;;;79.30;30.77;;;;;;;;;;5036710;28;20784;-76
2024/01/14 09:07:38;;;;;;;76.93;32.83;;;;;;;;;;5043359;28;20196;-76
2024/01/14 09:10:03;;;;;;;72.83;31.53;;;;;;;;;;5049227;28;20185;-76
2024/01/14 09:12:29;;;;;;;77.73;31.60;;;;;;;;;;5038317;28;20852;-76
2024/01/14 09:14:55;;;;;;;84.27;34.67;;;;;;;;;;5029189;28;20222;-76
2024/01/14 09:17:20;;;;;;;79.80;33.60;;;;;;;;;;5043298;28;20213;-76
2024/01/14 09:19:45;;;;;;;78.67;31.43;;;;;;;;;;5040794;28;20218;-76
2024/01/14 09:22:11;;;;;;;76.70;30.70;;;;;;;;;;5034330;28;20280;-76
2024/01/14 09:24:37;;;;;;;72.53;30.03;;;;;;;;;;5035106;28;20186;-76
2024/01/14 09:27:03;;;;;;;74.93;29.93;;;;;;;;;;5053714;28;20196;-75
2024/01/14 09:29:29;;;;;;;70.37;29.87;;;;;;;;;;5042311;28;20382;-76
2024/01/14 09:31:55;;;;;;;71.40;29.67;;;;;;;;;;5034508;28;20672;-75
2024/01/14 09:34:20;;;;;;;79.77;29.50;;;;;;;;;;5036936;28;20557;-76
2024/01/14 09:36:46;;;;;;;71.30;27.67;;;;;;;;;;5040044;28;20213;-75
2024/01/14 09:39:12;;;;;;;67.90;28.17;;;;;;;;;;5049336;28;20190;-75
2024/01/14 09:42:14;;;;;;;65.30;28.73;;;;;;;;;;5038196;28;20190;-76
2024/01/14 09:44:40;;;;;;;60.90;25.93;;;;;;;;;;5018327;28;20215;-75
2024/01/14 09:47:08;;;;;;;67.40;26.70;;;;;;;;;;5044140;28;20191;-75
2024/01/14 09:49:35;;;;;;;65.07;26.37;;;;;;;;;;5018357;28;20189;-76
2024/01/14 09:52:02;;;;;;;65.97;26.30;;;;;;;;;;5040125;28;20190;-76
2024/01/14 09:54:28;;;;;;;62.80;24.27;;;;;;;;;;5040092;28;20182;-75
2024/01/14 09:56:54;;;;;;;58.67;25.77;;;;;;;;;;5045253;28;20201;-76
2024/01/14 09:59:21;;;;;;;63.00;25.17;;;;;;;;;;5038057;28;20300;-75
2024/01/14 10:01:46;;;;;;;64.87;25.50;;;;;;;;;;5034896;28;20357;-75
2024/01/14 10:04:16;;;;;;;58.00;24.33;;;;;;;;;;5040768;28;20722;-76
2024/01/14 10:06:43;;;;;;;58.90;24.13;;;;;;;;;;5024249;28;20713;-75
2024/01/14 10:09:09;;;;;;;61.20;24.93;;;;;;;;;;5041886;28;20598;-75
2024/01/14 10:11:35;;;;;;;57.33;25.33;;;;;;;;;;5026758;28;20178;-75
2024/01/14 10:14:02;;;;;;;54.50;22.83;;;;;;;;;;5040445;28;20221;-75
2024/01/14 10:16:28;;;;;;;55.90;23.10;;;;;;;;;;5033564;28;20220;-75
2024/01/14 10:18:55;;;;;;;62.60;24.33;;;;;;;;;;5052590;28;20229;-75
2024/01/14 10:21:21;;;;;;;59.27;23.37;;;;;;;;;;5041123;28;20671;-75
2024/01/14 10:23:46;;;;;;;58.60;23.47;;;;;;;;;;5041009;28;20185;-75
2024/01/14 10:26:12;;;;;;;51.63;23.70;;;;;;;;;;5026971;28;20186;-75
2024/01/14 10:28:38;;;;;;;55.17;22.97;;;;;;;;;;5052548;28;20203;-75
2024/01/14 10:31:08;;;;;;;55.50;24.87;;;;;;;;;;5042639;28;20301;-75
2024/01/14 10:33:35;;;;;;;53.00;24.03;;;;;;;;;;5042865;28;20196;-76
2024/01/14 10:36:06;;;;;;;55.80;24.60;;;;;;;;;;5039426;28;20321;-75
2024/01/14 10:38:31;;;;;;;52.97;23.87;;;;;;;;;;5034787;28;20238;-76
2024/01/14 10:40:57;;;;;;;60.87;24.30;;;;;;;;;;5039287;28;20213;-75
2024/01/14 10:43:26;;;;;;;58.67;25.17;;;;;;;;;;5025651;28;20186;-75
2024/01/14 10:45:52;;;;;;;62.70;25.83;;;;;;;;;;5035254;28;20190;-75
2024/01/14 10:48:26;;;;;;;61.27;25.37;;;;;;;;;;5044076;28;20177;-76
2024/01/14 10:50:58;;;;;;;64.43;27.83;;;;;;;;;;5033013;28;20198;-76
2024/01/14 10:53:29;;;;;;;67.90;26.73;;;;;;;;;;5027972;28;20182;-76
2024/01/14 10:56:03;;;;;;;59.73;25.07;;;;;;;;;;5041073;28;20205;-75
2024/01/14 10:58:30;;;;;;;65.17;26.90;;;;;;;;;;5041392;28;20197;-76
2024/01/14 11:01:02;;;;;;;63.20;26.20;;;;;;;;;;5032621;28;20186;-75
2024/01/14 11:03:29;;;;;;;62.57;25.87;;;;;;;;;;5012915;28;20232;-75
2024/01/14 11:05:55;;;;;;;61.40;26.13;;;;;;;;;;5030679;28;20193;-75
2024/01/14 11:08:21;;;;;;;54.17;24.27;;;;;;;;;;5043887;28;20177;-76
2024/01/14 11:10:51;;;;;;;56.10;24.73;;;;;;;;;;5034355;28;20665;-75
2024/01/14 11:13:31;;;;;;;56.53;25.53;;;;;;;;;;5030817;28;20197;-76
2024/01/14 11:16:27;;;;;;;59.37;24.97;;;;;;;;;;5049074;28;20225;-76
2024/01/14 11:18:57;;;;;;;57.50;24.03;;;;;;;;;;5038481;28;20210;-76
2024/01/14 11:21:43;;;;;;;59.40;25.87;;;;;;;;;;5036334;28;20206;-75
2024/01/14 11:24:08;;;;;;;58.63;25.63;;;;;;;;;;5038667;28;20268;-76
2024/01/14 11:26:36;;;;;;;61.07;26.10;;;;;;;;;;5032311;28;20276;-76
2024/01/14 11:29:03;;;;;;;63.57;27.20;;;;;;;;;;5035373;28;20189;-76
2024/01/14 11:32:02;;;;;;;65.50;26.93;;;;;;;;;;5034878;28;20193;-76
2024/01/14 11:34:46;;;;;;;60.97;24.47;;;;;;;;;;5039429;28;20211;-76
2024/01/14 11:37:32;;;;;;;65.77;26.90;;;;;;;;;;5046591;28;20259;-76
2024/01/14 11:40:07;;;;;;;64.27;28.27;;;;;;;;;;5026268;28;20197;-76
2024/01/14 11:42:37;;;;;;;63.53;26.70;;;;;;;;;;5037999;28;20564;-76
2024/01/14 11:45:03;;;;;;;66.60;28.07;;;;;;;;;;5041577;28;20220;-76
2024/01/14 11:47:43;;;;;;;63.67;27.13;;;;;;;;;;5042978;28;20200;-76
2024/01/14 11:50:09;;;;;;;64.53;28.60;;;;;;;;;;5030174;28;20190;-76
2024/01/14 11:52:45;;;;;;;63.40;26.30;;;;;;;;;;5040712;28;20621;-76
2024/01/14 11:55:14;;;;;;;63.77;26.70;;;;;;;;;;5035126;28;20391;-77
2024/01/14 11:57:47;;;;;;;68.67;27.70;;;;;;;;;;5034408;28;20205;-76
2024/01/14 12:00:14;;;;;;;63.87;27.43;;;;;;;;;;5034414;28;20618;-77
2024/01/14 12:02:40;;;;;;;68.50;28.20;;;;;;;;;;5034153;28;20671;-77
2024/01/14 12:05:15;;;;;;;66.83;28.63;;;;;;;;;;5049970;28;20193;-77
2024/01/14 12:07:40;;;;;;;67.93;28.77;;;;;;;;;;5031648;28;20263;-76
2024/01/14 12:10:06;;;;;;;72.83;29.27;;;;;;;;;;5032781;28;20280;-77
2024/01/14 12:12:36;;;;;;;66.27;28.10;;;;;;;;;;5042983;28;20687;-77
2024/01/14 12:15:02;;;;;;;68.83;29.67;;;;;;;;;;5031314;28;20743;-77
2024/01/14 12:17:27;;;;;;;65.93;28.70;;;;;;;;;;5030835;28;20213;-77
2024/01/14 12:19:59;;;;;;;66.63;29.57;;;;;;;;;;5034387;28;20607;-77
2024/01/14 12:22:25;;;;;;;68.37;28.20;;;;;;;;;;5046049;28;20185;-79
2024/01/14 12:24:51;;;;;;;64.13;27.27;;;;;;;;;;5049243;28;20546;-77
2024/01/14 12:27:16;;;;;;;69.07;28.10;;;;;;;;;;5032829;28;20228;-77
2024/01/14 12:29:42;;;;;;;70.17;28.10;;;;;;;;;;5043687;28;20284;-77
2024/01/14 12:32:09;;;;;;;70.27;28.13;;;;;;;;;;5036522;28;20190;-76
2024/01/14 12:34:37;;;;;;;68.97;28.23;;;;;;;;;;5046427;28;20182;-76
2024/01/14 12:37:03;;;;;;;69.17;28.70;;;;;;;;;;5037448;28;20728;-77
2024/01/14 12:39:29;;;;;;;66.57;28.23;;;;;;;;;;5043143;28;20225;-76
2024/01/14 12:41:55;;;;;;;70.87;28.60;;;;;;;;;;5016264;28;20230;-76
2024/01/14 12:44:21;;;;;;;63.17;26.73;;;;;;;;;;5038071;28;20239;-77
2024/01/14 12:46:52;;;;;;;70.90;28.60;;;;;;;;;;5040263;28;20631;-76
2024/01/14 12:49:20;;;;;;;70.63;29.70;;;;;;;;;;5034564;28;20210;-76
2024/01/14 12:51:45;;;;;;;67.07;28.53;;;;;;;;;;5047006;28;20191;-76
2024/01/14 12:54:17;;;;;;;62.87;28.27;;;;;;;;;;5016835;28;20285;-77
2024/01/14 12:57:03;;;;;;;66.30;28.07;;;;;;;;;;5045351;28;20880;-76
2024/01/14 12:59:33;;;;;;;64.33;27.83;;;;;;;;;;5044865;28;20316;-76
2024/01/14 13:01:59;;;;;;;64.10;27.47;;;;;;;;;;5046378;28;20264;-76
2024/01/14 13:04:28;;;;;;;59.37;27.83;;;;;;;;;;5027846;28;20259;-77
2024/01/14 13:06:54;;;;;;;67.10;28.87;;;;;;;;;;5042574;28;20217;-77
2024/01/14 13:09:20;;;;;;;64.07;27.17;;;;;;;;;;5046080;28;20185;-76
2024/01/14 13:11:47;;;;;;;66.53;27.87;;;;;;;;;;5034834;28;20188;-76
2024/01/14 13:14:12;;;;;;;56.73;27.50;;;;;;;;;;5048493;28;20271;-77
2024/01/14 13:16:38;;;;;;;64.30;27.53;;;;;;;;;;5029389;28;20193;-76
2024/01/14 13:19:04;;;;;;;62.13;27.57;;;;;;;;;;5026054;28;20296;-77
2024/01/14 13:21:29;;;;;;;65.60;27.53;;;;;;;;;;5032514;28;20186;-76
2024/01/14 13:23:55;;;;;;;60.40;27.63;;;;;;;;;;5037650;28;20196;-76
2024/01/14 13:26:23;;;;;;;59.20;26.10;;;;;;;;;;5018531;28;20192;-76
2024/01/14 13:28:48;;;;;;;53.97;25.07;;;;;;;;;;5043464;28;20212;-76
2024/01/14 13:31:14;;;;;;;54.77;25.60;;;;;;;;;;5043093;28;20561;-76
2024/01/14 13:33:39;;;;;;;60.40;26.13;;;;;;;;;;5043504;28;20798;-76
2024/01/14 13:36:05;;;;;;;56.27;25.43;;;;;;;;;;5020078;28;20265;-76
2024/01/14 13:38:30;;;;;;;58.27;25.27;;;;;;;;;;5040942;28;20292;-77
2024/01/14 13:40:56;;;;;;;57.17;25.10;;;;;;;;;;5042391;28;20205;-77
2024/01/14 13:43:21;;;;;;;54.37;25.03;;;;;;;;;;5040047;28;20195;-77
2024/01/14 13:45:47;;;;;;;52.33;25.27;;;;;;;;;;5039571;28;20193;-77
2024/01/14 13:48:12;;;;;;;51.37;24.00;;;;;;;;;;5020197;28;20179;-77
2024/01/14 13:50:38;;;;;;;55.83;24.63;;;;;;;;;;5036029;28;20239;-77
2024/01/14 13:53:03;;;;;;;55.90;24.60;;;;;;;;;;5044386;28;20190;-77
2024/01/14 13:55:28;;;;;;;53.50;24.80;;;;;;;;;;5043102;28;20273;-77
2024/01/14 13:57:54;;;;;;;55.47;24.80;;;;;;;;;;5022534;28;20269;-77
2024/01/14 14:00:20;;;;;;;59.07;24.77;;;;;;;;;;5040279;28;20177;-77
2024/01/14 14:02:45;;;;;;;55.93;23.73;;;;;;;;;;5016367;28;20530;-77
2024/01/14 14:05:11;;;;;;;51.40;22.90;;;;;;;;;;5041589;28;20190;-76
2024/01/14 14:07:39;;;;;;;57.50;24.30;;;;;;;;;;5041648;28;20187;-77
2024/01/14 14:10:06;;;;;;;60.07;24.83;;;;;;;;;;5044762;28;20185;-77
2024/01/14 14:12:31;;;;;;;57.07;25.10;;;;;;;;;;5026828;28;20516;-77
2024/01/14 14:14:57;;;;;;;58.30;26.07;;;;;;;;;;5039831;28;20222;-77